sensor_id;sensor_type;location;lat;lon;timestamp;pressure;altitude;pressure_sealevel;temperature;humidity
69622;BME280;56841;55.964;37.674;2022-10-31T00:01:37;97797.72;;;0.61;62.36
69622;BME280;56841;55.964;37.674;2022-10-31T00:04:04;97792.00;;;0.58;62.53
69622;BME280;56841;55.964;37.674;2022-10-31T00:06:30;97809.03;;;0.52;62.29
69622;BME280;56841;55.964;37.674;2022-10-31T00:08:58;97791.34;;;0.56;62.11
69622;BME280;56841;55.964;37.674;2022-10-31T00:11:26;97778.38;;;0.56;62.26
69622;BME280;56841;55.964;37.674;2022-10-31T00:13:51;97781.09;;;0.54;62.36
69622;BME280;56841;55.964;37.674;2022-10-31T00:16:22;97788.84;;;0.46;62.11
69622;BME280;56841;55.964;37.674;2022-10-31T00:18:57;97782.25;;;0.52;62.27
69622;BME280;56841;55.964;37.674;2022-10-31T00:21:24;97780.75;;;0.49;62.46
69622;BME280;56841;55.964;37.674;2022-10-31T00:23:50;97788.31;;;0.60;62.71
69622;BME280;56841;55.964;37.674;2022-10-31T00:26:16;97781.25;;;0.53;62.18
69622;BME280;56841;55.964;37.674;2022-10-31T00:28:42;97793.34;;;0.44;62.28
69622;BME280;56841;55.964;37.674;2022-10-31T00:31:10;97776.38;;;0.50;62.21
69622;BME280;56841;55.964;37.674;2022-10-31T00:33:38;97776.72;;;0.55;62.27
69622;BME280;56841;55.964;37.674;2022-10-31T00:36:05;97769.47;;;0.58;62.48
69622;BME280;56841;55.964;37.674;2022-10-31T00:38:32;97789.19;;;0.51;62.25
69622;BME280;56841;55.964;37.674;2022-10-31T00:40:58;97784.09;;;0.59;62.51
69622;BME280;56841;55.964;37.674;2022-10-31T00:43:24;97780.16;;;0.55;62.77
69622;BME280;56841;55.964;37.674;2022-10-31T00:45:50;97783.19;;;0.51;63.25
69622;BME280;56841;55.964;37.674;2022-10-31T00:48:15;97796.75;;;0.44;63.97
69622;BME280;56841;55.964;37.674;2022-10-31T00:50:41;97791.66;;;0.53;64.32
69622;BME280;56841;55.964;37.674;2022-10-31T00:53:07;97798.63;;;0.34;64.73
69622;BME280;56841;55.964;37.674;2022-10-31T00:55:33;97787.56;;;0.50;65.06
69622;BME280;56841;55.964;37.674;2022-10-31T00:57:59;97791.44;;;0.28;65.79
69622;BME280;56841;55.964;37.674;2022-10-31T01:00:25;97781.56;;;0.32;66.35
69622;BME280;56841;55.964;37.674;2022-10-31T01:02:51;97793.72;;;0.31;67.07
69622;BME280;56841;55.964;37.674;2022-10-31T01:05:17;97783.06;;;0.07;69.09
69622;BME280;56841;55.964;37.674;2022-10-31T01:07:44;97786.34;;;0.09;70.48
69622;BME280;56841;55.964;37.674;2022-10-31T01:10:11;97790.09;;;-0.04;72.42
69622;BME280;56841;55.964;37.674;2022-10-31T01:12:43;97795.41;;;-0.23;74.61
69622;BME280;56841;55.964;37.674;2022-10-31T01:15:14;97788.34;;;-0.31;76.14
69622;BME280;56841;55.964;37.674;2022-10-31T01:17:41;97797.69;;;-0.47;77.41
69622;BME280;56841;55.964;37.674;2022-10-31T01:20:11;97799.03;;;-0.43;78.57
69622;BME280;56841;55.964;37.674;2022-10-31T01:22:38;97798.81;;;-0.60;80.21
69622;BME280;56841;55.964;37.674;2022-10-31T01:25:04;97799.78;;;-0.61;81.84
69622;BME280;56841;55.964;37.674;2022-10-31T01:27:31;97806.78;;;-0.71;83.61
69622;BME280;56841;55.964;37.674;2022-10-31T01:29:57;97799.00;;;-0.71;84.58
69622;BME280;56841;55.964;37.674;2022-10-31T01:32:23;97806.53;;;-0.78;85.56
69622;BME280;56841;55.964;37.674;2022-10-31T01:34:50;97800.94;;;-0.83;88.02
69622;BME280;56841;55.964;37.674;2022-10-31T01:37:16;97800.09;;;-0.74;88.75
69622;BME280;56841;55.964;37.674;2022-10-31T01:39:42;97797.22;;;-0.70;88.87
69622;BME280;56841;55.964;37.674;2022-10-31T01:42:16;97791.78;;;-0.77;89.56
69622;BME280;56841;55.964;37.674;2022-10-31T01:44:52;97795.63;;;-0.81;88.89
69622;BME280;56841;55.964;37.674;2022-10-31T01:47:31;97792.75;;;-0.78;89.28
69622;BME280;56841;55.964;37.674;2022-10-31T01:50:00;97797.53;;;-0.93;90.34
69622;BME280;56841;55.964;37.674;2022-10-31T01:52:41;97798.66;;;-0.96;91.23
69622;BME280;56841;55.964;37.674;2022-10-31T01:55:15;97784.88;;;-0.96;91.33
69622;BME280;56841;55.964;37.674;2022-10-31T01:57:46;97799.59;;;-0.87;91.65
69622;BME280;56841;55.964;37.674;2022-10-31T02:00:16;97793.97;;;-0.82;91.77
69622;BME280;56841;55.964;37.674;2022-10-31T02:02:45;97795.09;;;-0.85;92.99
69622;BME280;56841;55.964;37.674;2022-10-31T02:05:15;97809.69;;;-0.93;94.30
69622;BME280;56841;55.964;37.674;2022-10-31T02:07:55;97795.63;;;-0.91;95.10
69622;BME280;56841;55.964;37.674;2022-10-31T02:10:29;97797.16;;;-0.98;95.18
69622;BME280;56841;55.964;37.674;2022-10-31T02:12:58;97801.00;;;-1.02;95.16
69622;BME280;56841;55.964;37.674;2022-10-31T02:15:28;97794.97;;;-1.03;96.13
69622;BME280;56841;55.964;37.674;2022-10-31T02:17:54;97806.84;;;-1.00;95.92
69622;BME280;56841;55.964;37.674;2022-10-31T02:20:22;97800.84;;;-1.01;97.17
69622;BME280;56841;55.964;37.674;2022-10-31T02:31:36;97797.88;;;-1.06;98.96
69622;BME280;56841;55.964;37.674;2022-10-31T02:40:57;97806.72;;;-0.99;98.30
69622;BME280;56841;55.964;37.674;2022-10-31T02:43:33;97793.47;;;-0.96;98.40
69622;BME280;56841;55.964;37.674;2022-10-31T02:46:10;97811.34;;;-1.02;97.70
69622;BME280;56841;55.964;37.674;2022-10-31T02:48:41;97795.63;;;-0.91;98.09
69622;BME280;56841;55.964;37.674;2022-10-31T02:51:10;97809.16;;;-0.97;97.96
69622;BME280;56841;55.964;37.674;2022-10-31T02:53:37;97808.72;;;-0.92;98.13
69622;BME280;56841;55.964;37.674;2022-10-31T02:58:35;97803.84;;;-0.96;97.21
69622;BME280;56841;55.964;37.674;2022-10-31T03:09:37;97800.56;;;-0.98;95.48
69622;BME280;56841;55.964;37.674;2022-10-31T03:14:55;97812.28;;;-0.93;94.46
69622;BME280;56841;55.964;37.674;2022-10-31T03:17:31;97818.53;;;-0.96;95.05
69622;BME280;56841;55.964;37.674;2022-10-31T03:20:00;97823.06;;;-0.88;94.22
69622;BME280;56841;55.964;37.674;2022-10-31T03:22:31;97820.19;;;-0.85;94.08
69622;BME280;56841;55.964;37.674;2022-10-31T03:25:01;97807.22;;;-0.85;93.65
69622;BME280;56841;55.964;37.674;2022-10-31T03:27:32;97805.56;;;-0.86;93.35
69622;BME280;56841;55.964;37.674;2022-10-31T03:30:02;97816.34;;;-0.81;93.28
69622;BME280;56841;55.964;37.674;2022-10-31T03:32:41;97813.59;;;-0.80;93.57
69622;BME280;56841;55.964;37.674;2022-10-31T03:35:10;97803.78;;;-0.76;92.84
69622;BME280;56841;55.964;37.674;2022-10-31T03:37:39;97803.69;;;-0.84;94.25
69622;BME280;56841;55.964;37.674;2022-10-31T03:40:12;97811.84;;;-0.79;94.65
69622;BME280;56841;55.964;37.674;2022-10-31T03:42:41;97820.84;;;-0.83;94.19
69622;BME280;56841;55.964;37.674;2022-10-31T03:45:13;97826.03;;;-0.83;95.60
69622;BME280;56841;55.964;37.674;2022-10-31T03:47:41;97815.41;;;-0.90;95.67
69622;BME280;56841;55.964;37.674;2022-10-31T03:50:10;97820.31;;;-0.87;96.35
69622;BME280;56841;55.964;37.674;2022-10-31T03:55:26;97821.66;;;-0.73;96.85
69622;BME280;56841;55.964;37.674;2022-10-31T03:58:02;97829.72;;;-0.86;96.41
69622;BME280;56841;55.964;37.674;2022-10-31T04:00:31;97837.63;;;-0.87;96.25
69622;BME280;56841;55.964;37.674;2022-10-31T04:03:03;97837.47;;;-0.86;97.42
69622;BME280;56841;55.964;37.674;2022-10-31T04:05:34;97835.56;;;-0.74;97.29
69622;BME280;56841;55.964;37.674;2022-10-31T04:08:04;97832.69;;;-0.71;97.38
69622;BME280;56841;55.964;37.674;2022-10-31T04:10:32;97838.81;;;-0.72;96.64
69622;BME280;56841;55.964;37.674;2022-10-31T04:13:04;97839.66;;;-0.72;96.60
69622;BME280;56841;55.964;37.674;2022-10-31T04:15:44;97837.19;;;-0.73;96.12
69622;BME280;56841;55.964;37.674;2022-10-31T04:18:12;97846.06;;;-0.76;96.09
69622;BME280;56841;55.964;37.674;2022-10-31T04:20:40;97862.03;;;-0.80;95.36
69622;BME280;56841;55.964;37.674;2022-10-31T04:23:23;97864.19;;;-0.66;95.51
69622;BME280;56841;55.964;37.674;2022-10-31T04:25:50;97865.44;;;-0.70;95.75
69622;BME280;56841;55.964;37.674;2022-10-31T04:28:17;97865.59;;;-0.81;95.50
69622;BME280;56841;55.964;37.674;2022-10-31T04:30:43;97861.56;;;-0.56;95.68
69622;BME280;56841;55.964;37.674;2022-10-31T04:33:09;97874.56;;;-0.66;95.25
69622;BME280;56841;55.964;37.674;2022-10-31T04:35:35;97870.84;;;-0.54;95.45
69622;BME280;56841;55.964;37.674;2022-10-31T04:38:01;97861.69;;;-0.48;94.95
69622;BME280;56841;55.964;37.674;2022-10-31T04:40:27;97872.81;;;-0.28;94.19
69622;BME280;56841;55.964;37.674;2022-10-31T04:43:20;97874.78;;;-0.40;93.05
69622;BME280;56841;55.964;37.674;2022-10-31T04:45:46;97881.94;;;-0.61;93.67
69622;BME280;56841;55.964;37.674;2022-10-31T04:48:13;97868.25;;;-0.54;95.08
69622;BME280;56841;55.964;37.674;2022-10-31T04:50:41;97873.56;;;-0.45;94.75
69622;BME280;56841;55.964;37.674;2022-10-31T04:53:08;97890.78;;;-0.44;94.52
69622;BME280;56841;55.964;37.674;2022-10-31T04:55:42;97882.72;;;-0.51;94.43
69622;BME280;56841;55.964;37.674;2022-10-31T04:58:16;97884.34;;;-0.40;94.77
69622;BME280;56841;55.964;37.674;2022-10-31T05:00:43;97887.47;;;-0.37;94.89
69622;BME280;56841;55.964;37.674;2022-10-31T05:03:08;97888.56;;;-0.39;94.78
69622;BME280;56841;55.964;37.674;2022-10-31T05:05:35;97895.13;;;-0.45;95.71
69622;BME280;56841;55.964;37.674;2022-10-31T05:08:02;97905.22;;;-0.52;96.22
69622;BME280;56841;55.964;37.674;2022-10-31T05:10:30;97910.94;;;-0.38;96.26
69622;BME280;56841;55.964;37.674;2022-10-31T05:13:00;97903.16;;;-0.38;96.51
69622;BME280;56841;55.964;37.674;2022-10-31T05:15:45;97913.13;;;-0.43;96.25
69622;BME280;56841;55.964;37.674;2022-10-31T05:18:30;97924.31;;;-0.33;96.29
69622;BME280;56841;55.964;37.674;2022-10-31T05:21:25;97930.28;;;-0.23;97.14
69622;BME280;56841;55.964;37.674;2022-10-31T05:23:54;97940.81;;;-0.34;96.79
69622;BME280;56841;55.964;37.674;2022-10-31T05:26:22;97935.38;;;-0.41;97.01
69622;BME280;56841;55.964;37.674;2022-10-31T05:28:48;97954.47;;;-0.32;96.75
69622;BME280;56841;55.964;37.674;2022-10-31T05:31:16;97957.06;;;-0.32;97.44
69622;BME280;56841;55.964;37.674;2022-10-31T05:33:42;97955.72;;;-0.36;98.07
69622;BME280;56841;55.964;37.674;2022-10-31T05:36:26;97951.03;;;-0.23;99.07
69622;BME280;56841;55.964;37.674;2022-10-31T05:38:56;97965.50;;;-0.20;98.73
69622;BME280;56841;55.964;37.674;2022-10-31T05:41:30;97971.50;;;-0.10;97.54
69622;BME280;56841;55.964;37.674;2022-10-31T05:44:04;97979.94;;;-0.08;97.92
69622;BME280;56841;55.964;37.674;2022-10-31T05:46:34;97978.84;;;-0.06;98.07
69622;BME280;56841;55.964;37.674;2022-10-31T05:49:19;97984.84;;;-0.05;98.24
69622;BME280;56841;55.964;37.674;2022-10-31T05:52:04;97988.25;;;0.05;97.57
69622;BME280;56841;55.964;37.674;2022-10-31T05:54:37;98002.88;;;-0.04;97.98
69622;BME280;56841;55.964;37.674;2022-10-31T05:57:03;98007.38;;;0.04;98.31
69622;BME280;56841;55.964;37.674;2022-10-31T05:59:29;98021.66;;;0.28;98.65
69622;BME280;56841;55.964;37.674;2022-10-31T06:01:57;98025.66;;;0.50;98.26
69622;BME280;56841;55.964;37.674;2022-10-31T06:04:41;98027.28;;;0.51;97.73
69622;BME280;56841;55.964;37.674;2022-10-31T06:07:07;98040.78;;;0.64;97.05
69622;BME280;56841;55.964;37.674;2022-10-31T06:09:33;98037.34;;;0.73;96.21
69622;BME280;56841;55.964;37.674;2022-10-31T06:11:58;98048.84;;;0.61;95.57
69622;BME280;56841;55.964;37.674;2022-10-31T06:14:24;98042.38;;;0.75;95.95
69622;BME280;56841;55.964;37.674;2022-10-31T06:16:59;98054.41;;;0.76;95.02
69622;BME280;56841;55.964;37.674;2022-10-31T06:20:05;98062.34;;;0.74;94.84
69622;BME280;56841;55.964;37.674;2022-10-31T06:22:35;98075.00;;;0.87;94.51
69622;BME280;56841;55.964;37.674;2022-10-31T06:25:01;98083.72;;;0.95;95.59
69622;BME280;56841;55.964;37.674;2022-10-31T06:27:31;98091.91;;;1.01;94.60
69622;BME280;56841;55.964;37.674;2022-10-31T06:30:03;98089.69;;;1.06;94.96
69622;BME280;56841;55.964;37.674;2022-10-31T06:32:34;98101.53;;;1.18;94.58
69622;BME280;56841;55.964;37.674;2022-10-31T06:35:00;98107.34;;;1.30;95.02
69622;BME280;56841;55.964;37.674;2022-10-31T06:37:26;98104.31;;;1.34;94.53
69622;BME280;56841;55.964;37.674;2022-10-31T06:39:56;98114.44;;;1.37;93.62
69622;BME280;56841;55.964;37.674;2022-10-31T06:42:22;98118.38;;;1.41;92.91
69622;BME280;56841;55.964;37.674;2022-10-31T06:44:48;98123.94;;;1.47;92.40
69622;BME280;56841;55.964;37.674;2022-10-31T06:47:34;98129.91;;;1.57;92.78
69622;BME280;56841;55.964;37.674;2022-10-31T06:50:06;98127.28;;;1.57;91.95
69622;BME280;56841;55.964;37.674;2022-10-31T06:52:32;98137.69;;;1.57;91.47
69622;BME280;56841;55.964;37.674;2022-10-31T06:54:57;98138.91;;;1.62;91.80
69622;BME280;56841;55.964;37.674;2022-10-31T06:57:23;98145.69;;;1.73;90.44
69622;BME280;56841;55.964;37.674;2022-10-31T06:59:49;98153.59;;;1.81;90.05
69622;BME280;56841;55.964;37.674;2022-10-31T07:03:13;98163.84;;;1.83;90.12
69622;BME280;56841;55.964;37.674;2022-10-31T07:05:39;98183.22;;;1.71;89.41
69622;BME280;56841;55.964;37.674;2022-10-31T07:08:07;98187.91;;;1.67;89.46
69622;BME280;56841;55.964;37.674;2022-10-31T07:10:36;98192.56;;;1.63;89.01
69622;BME280;56841;55.964;37.674;2022-10-31T07:13:04;98206.94;;;1.68;88.67
69622;BME280;56841;55.964;37.674;2022-10-31T07:15:35;98202.97;;;1.63;89.29
69622;BME280;56841;55.964;37.674;2022-10-31T07:18:05;98203.91;;;1.72;88.58
69622;BME280;56841;55.964;37.674;2022-10-31T07:20:33;98216.91;;;1.72;87.22
69622;BME280;56841;55.964;37.674;2022-10-31T07:22:59;98217.69;;;1.82;87.70
69622;BME280;56841;55.964;37.674;2022-10-31T07:25:26;98232.03;;;1.86;86.90
69622;BME280;56841;55.964;37.674;2022-10-31T07:28:11;98229.94;;;1.90;85.70
69622;BME280;56841;55.964;37.674;2022-10-31T07:30:38;98238.06;;;2.05;85.36
69622;BME280;56841;55.964;37.674;2022-10-31T07:33:04;98244.53;;;2.01;86.21
69622;BME280;56841;55.964;37.674;2022-10-31T07:35:49;98263.28;;;2.04;87.83
69622;BME280;56841;55.964;37.674;2022-10-31T07:38:20;98260.84;;;2.03;88.87
69622;BME280;56841;55.964;37.674;2022-10-31T07:40:50;98266.47;;;1.98;90.44
69622;BME280;56841;55.964;37.674;2022-10-31T07:43:17;98276.53;;;1.93;91.08
69622;BME280;56841;55.964;37.674;2022-10-31T07:46:12;98272.13;;;1.94;90.34
69622;BME280;56841;55.964;37.674;2022-10-31T07:48:59;98279.06;;;2.03;89.65
69622;BME280;56841;55.964;37.674;2022-10-31T07:51:43;98281.09;;;2.09;88.98
69622;BME280;56841;55.964;37.674;2022-10-31T07:54:28;98290.47;;;2.02;89.26
69622;BME280;56841;55.964;37.674;2022-10-31T07:56:53;98292.50;;;1.98;89.51
69622;BME280;56841;55.964;37.674;2022-10-31T07:59:19;98307.03;;;2.01;88.84
69622;BME280;56841;55.964;37.674;2022-10-31T08:01:47;98306.44;;;2.07;88.13
69622;BME280;56841;55.964;37.674;2022-10-31T08:04:31;98307.13;;;2.09;86.67
69622;BME280;56841;55.964;37.674;2022-10-31T08:07:36;98312.34;;;2.09;85.65
69622;BME280;56841;55.964;37.674;2022-10-31T08:10:05;98316.66;;;2.18;85.42
69622;BME280;56841;55.964;37.674;2022-10-31T08:12:33;98317.47;;;2.19;83.08
69622;BME280;56841;55.964;37.674;2022-10-31T08:14:58;98331.25;;;2.29;83.03
69622;BME280;56841;55.964;37.674;2022-10-31T08:17:24;98324.94;;;2.31;83.43
69622;BME280;56841;55.964;37.674;2022-10-31T08:19:54;98325.19;;;2.38;84.00
69622;BME280;56841;55.964;37.674;2022-10-31T08:22:25;98330.03;;;2.51;83.84
69622;BME280;56841;55.964;37.674;2022-10-31T08:24:51;98343.81;;;2.43;82.61
69622;BME280;56841;55.964;37.674;2022-10-31T08:27:17;98347.13;;;2.35;82.77
69622;BME280;56841;55.964;37.674;2022-10-31T08:29:43;98348.63;;;2.38;83.24
69622;BME280;56841;55.964;37.674;2022-10-31T08:32:09;98355.28;;;2.50;83.28
69622;BME280;56841;55.964;37.674;2022-10-31T08:34:53;98360.28;;;2.61;81.89
69622;BME280;56841;55.964;37.674;2022-10-31T08:37:33;98359.34;;;2.53;80.19
69622;BME280;56841;55.964;37.674;2022-10-31T08:39:59;98367.78;;;2.47;79.61
69622;BME280;56841;55.964;37.674;2022-10-31T08:42:25;98368.34;;;2.41;79.52
69622;BME280;56841;55.964;37.674;2022-10-31T08:44:51;98367.09;;;2.45;78.15
69622;BME280;56841;55.964;37.674;2022-10-31T08:47:21;98382.28;;;2.49;78.66
69622;BME280;56841;55.964;37.674;2022-10-31T08:49:47;98380.66;;;2.48;78.69
69622;BME280;56841;55.964;37.674;2022-10-31T08:52:13;98392.69;;;2.49;79.32
69622;BME280;56841;55.964;37.674;2022-10-31T08:54:42;98392.47;;;2.43;79.93
69622;BME280;56841;55.964;37.674;2022-10-31T08:57:37;98396.22;;;2.58;80.01
69622;BME280;56841;55.964;37.674;2022-10-31T09:00:03;98399.19;;;2.63;79.94
69622;BME280;56841;55.964;37.674;2022-10-31T09:03:06;98410.91;;;2.77;79.80
69622;BME280;56841;55.964;37.674;2022-10-31T09:05:32;98419.63;;;2.68;80.15
69622;BME280;56841;55.964;37.674;2022-10-31T09:07:59;98415.97;;;2.60;78.91
69622;BME280;56841;55.964;37.674;2022-10-31T09:10:28;98421.13;;;2.70;79.59
69622;BME280;56841;55.964;37.674;2022-10-31T09:12:58;98415.28;;;2.58;76.74
69622;BME280;56841;55.964;37.674;2022-10-31T09:15:27;98410.28;;;2.47;74.30
69622;BME280;56841;55.964;37.674;2022-10-31T09:18:14;98424.59;;;2.61;75.41
69622;BME280;56841;55.964;37.674;2022-10-31T09:20:56;98416.50;;;2.64;74.95
69622;BME280;56841;55.964;37.674;2022-10-31T09:23:22;98417.09;;;2.76;75.38
69622;BME280;56841;55.964;37.674;2022-10-31T09:25:50;98437.53;;;2.80;74.91
69622;BME280;56841;55.964;37.674;2022-10-31T09:28:35;98452.09;;;2.73;77.22
69622;BME280;56841;55.964;37.674;2022-10-31T09:31:09;98442.94;;;2.87;77.32
69622;BME280;56841;55.964;37.674;2022-10-31T09:33:55;98455.91;;;2.79;75.92
69622;BME280;56841;55.964;37.674;2022-10-31T09:36:41;98461.41;;;2.76;76.32
69622;BME280;56841;55.964;37.674;2022-10-31T09:39:13;98479.25;;;2.80;76.71
69622;BME280;56841;55.964;37.674;2022-10-31T09:50:45;98496.88;;;2.87;75.16
69622;BME280;56841;55.964;37.674;2022-10-31T09:56:10;98501.63;;;3.01;73.16
69622;BME280;56841;55.964;37.674;2022-10-31T09:58:41;98515.63;;;3.00;73.37
69622;BME280;56841;55.964;37.674;2022-10-31T10:01:19;98517.47;;;3.07;73.12
69622;BME280;56841;55.964;37.674;2022-10-31T10:03:50;98536.94;;;3.13;73.32
69622;BME280;56841;55.964;37.674;2022-10-31T10:06:44;98524.44;;;3.17;73.82
69622;BME280;56841;55.964;37.674;2022-10-31T10:09:32;98536.91;;;3.23;73.86
69622;BME280;56841;55.964;37.674;2022-10-31T10:18:30;98536.09;;;2.95;77.62
69622;BME280;56841;55.964;37.674;2022-10-31T10:26:38;98552.03;;;2.07;85.15
69622;BME280;56841;55.964;37.674;2022-10-31T10:32:06;98563.78;;;2.21;85.79
69622;BME280;56841;55.964;37.674;2022-10-31T10:34:41;98561.19;;;2.21;85.63
69622;BME280;56841;55.964;37.674;2022-10-31T10:37:31;98557.38;;;2.06;84.38
69622;BME280;56841;55.964;37.674;2022-10-31T10:40:22;98563.50;;;2.24;84.53
69622;BME280;56841;55.964;37.674;2022-10-31T10:45:59;98558.94;;;2.46;84.43
69622;BME280;56841;55.964;37.674;2022-10-31T10:51:43;98537.75;;;2.11;83.09
69622;BME280;56841;55.964;37.674;2022-10-31T10:54:22;98548.84;;;2.23;83.91
69622;BME280;56841;55.964;37.674;2022-10-31T10:59:44;98548.13;;;2.41;82.89
69622;BME280;56841;55.964;37.674;2022-10-31T11:02:23;98547.34;;;2.21;82.15
69622;BME280;56841;55.964;37.674;2022-10-31T11:04:52;98556.78;;;2.22;81.46
69622;BME280;56841;55.964;37.674;2022-10-31T11:07:19;98565.59;;;2.11;81.83
69622;BME280;56841;55.964;37.674;2022-10-31T11:09:45;98570.53;;;2.14;82.05
69622;BME280;56841;55.964;37.674;2022-10-31T11:12:32;98561.88;;;2.23;81.25
69622;BME280;56841;55.964;37.674;2022-10-31T11:15:02;98575.19;;;2.20;81.57
69622;BME280;56841;55.964;37.674;2022-10-31T11:17:34;98569.81;;;2.31;81.10
69622;BME280;56841;55.964;37.674;2022-10-31T11:22:44;98568.28;;;2.29;80.44
69622;BME280;56841;55.964;37.674;2022-10-31T11:25:24;98561.19;;;2.11;80.39
69622;BME280;56841;55.964;37.674;2022-10-31T11:28:09;98590.69;;;2.12;81.37
69622;BME280;56841;55.964;37.674;2022-10-31T11:30:43;98575.06;;;2.02;82.56
69622;BME280;56841;55.964;37.674;2022-10-31T11:35:48;98583.97;;;2.09;82.46
69622;BME280;56841;55.964;37.674;2022-10-31T11:38:20;98587.81;;;2.05;82.70
69622;BME280;56841;55.964;37.674;2022-10-31T11:41:10;98582.47;;;1.97;82.94
69622;BME280;56841;55.964;37.674;2022-10-31T11:43:37;98578.88;;;1.98;83.35
69622;BME280;56841;55.964;37.674;2022-10-31T11:46:10;98577.81;;;1.91;83.90
69622;BME280;56841;55.964;37.674;2022-10-31T11:48:37;98571.06;;;1.98;83.04
69622;BME280;56841;55.964;37.674;2022-10-31T11:51:04;98570.53;;;2.04;83.10
69622;BME280;56841;55.964;37.674;2022-10-31T11:53:33;98589.44;;;2.06;82.41
69622;BME280;56841;55.964;37.674;2022-10-31T11:56:05;98588.91;;;2.03;83.06
69622;BME280;56841;55.964;37.674;2022-10-31T11:58:31;98578.75;;;2.09;82.78
69622;BME280;56841;55.964;37.674;2022-10-31T12:00:58;98590.69;;;2.12;83.50
69622;BME280;56841;55.964;37.674;2022-10-31T12:04:11;98593.13;;;2.13;84.29
69622;BME280;56841;55.964;37.674;2022-10-31T12:06:41;98613.59;;;1.99;85.61
69622;BME280;56841;55.964;37.674;2022-10-31T12:09:29;98596.03;;;1.91;87.70
69622;BME280;56841;55.964;37.674;2022-10-31T12:17:23;98608.91;;;1.83;88.59
69622;BME280;56841;55.964;37.674;2022-10-31T12:30:21;98604.81;;;2.00;87.78
69622;BME280;56841;55.964;37.674;2022-10-31T12:35:43;98594.94;;;1.94;88.27
69622;BME280;56841;55.964;37.674;2022-10-31T12:40:58;98611.91;;;1.98;90.29
69622;BME280;56841;55.964;37.674;2022-10-31T12:43:48;98620.41;;;1.90;90.25
69622;BME280;56841;55.964;37.674;2022-10-31T12:49:27;98627.16;;;1.93;90.29
69622;BME280;56841;55.964;37.674;2022-10-31T12:57:39;98634.53;;;1.97;89.97
69622;BME280;56841;55.964;37.674;2022-10-31T13:05:56;98647.69;;;1.96;89.38
69622;BME280;56841;55.964;37.674;2022-10-31T13:08:33;98664.69;;;2.00;89.55
69622;BME280;56841;55.964;37.674;2022-10-31T13:11:10;98665.78;;;2.07;89.30
69622;BME280;56841;55.964;37.674;2022-10-31T13:13:44;98670.00;;;1.98;88.78
69622;BME280;56841;55.964;37.674;2022-10-31T13:16:21;98668.66;;;2.13;88.70
69622;BME280;56841;55.964;37.674;2022-10-31T13:19:18;98661.94;;;2.21;87.62
69622;BME280;56841;55.964;37.674;2022-10-31T13:21:53;98682.09;;;2.19;87.32
69622;BME280;56841;55.964;37.674;2022-10-31T13:24:33;98678.94;;;2.25;86.70
69622;BME280;56841;55.964;37.674;2022-10-31T13:27:03;98680.56;;;2.35;86.97
69622;BME280;56841;55.964;37.674;2022-10-31T13:30:03;98691.25;;;2.42;86.39
69622;BME280;56841;55.964;37.674;2022-10-31T13:32:40;98692.50;;;2.38;85.98
69622;BME280;56841;55.964;37.674;2022-10-31T13:35:25;98696.75;;;2.39;86.25
69622;BME280;56841;55.964;37.674;2022-10-31T13:38:09;98701.13;;;2.48;85.98
69622;BME280;56841;55.964;37.674;2022-10-31T13:40:57;98694.03;;;2.31;86.78
69622;BME280;56841;55.964;37.674;2022-10-31T13:45:52;98708.84;;;2.30;88.43
69622;BME280;56841;55.964;37.674;2022-10-31T13:50:58;98730.88;;;2.07;89.88
69622;BME280;56841;55.964;37.674;2022-10-31T13:56:29;98722.94;;;1.99;90.50
69622;BME280;56841;55.964;37.674;2022-10-31T13:59:15;98716.88;;;1.98;90.99
69622;BME280;56841;55.964;37.674;2022-10-31T14:01:51;98734.03;;;2.01;91.01
69622;BME280;56841;55.964;37.674;2022-10-31T14:04:22;98737.31;;;2.03;91.77
69622;BME280;56841;55.964;37.674;2022-10-31T14:12:07;98742.13;;;2.07;90.75
69622;BME280;56841;55.964;37.674;2022-10-31T14:14:51;98755.28;;;2.06;90.20
69622;BME280;56841;55.964;37.674;2022-10-31T14:17:25;98751.00;;;2.05;90.90
69622;BME280;56841;55.964;37.674;2022-10-31T14:20:25;98758.81;;;2.05;91.36
69622;BME280;56841;55.964;37.674;2022-10-31T14:22:53;98778.97;;;2.03;90.33
69622;BME280;56841;55.964;37.674;2022-10-31T14:25:36;98772.97;;;2.12;90.10
69622;BME280;56841;55.964;37.674;2022-10-31T14:28:18;98754.47;;;2.15;89.58
69622;BME280;56841;55.964;37.674;2022-10-31T14:30:53;98770.38;;;2.12;88.19
69622;BME280;56841;55.964;37.674;2022-10-31T14:33:20;98781.72;;;2.11;88.38
69622;BME280;56841;55.964;37.674;2022-10-31T14:39:02;98778.09;;;2.33;86.59
69622;BME280;56841;55.964;37.674;2022-10-31T14:50:17;98787.66;;;2.42;83.04
69622;BME280;56841;55.964;37.674;2022-10-31T14:52:49;98792.88;;;2.32;83.49
69622;BME280;56841;55.964;37.674;2022-10-31T14:55:18;98797.81;;;2.35;83.83
69622;BME280;56841;55.964;37.674;2022-10-31T14:58:06;98792.06;;;2.42;83.18
69622;BME280;56841;55.964;37.674;2022-10-31T15:00:35;98795.47;;;2.42;83.12
69622;BME280;56841;55.964;37.674;2022-10-31T15:03:21;98809.34;;;2.43;82.46
69622;BME280;56841;55.964;37.674;2022-10-31T15:05:52;98805.09;;;2.42;82.82
69622;BME280;56841;55.964;37.674;2022-10-31T15:08:33;98798.34;;;2.39;83.42
69622;BME280;56841;55.964;37.674;2022-10-31T15:11:08;98813.16;;;2.38;83.75
69622;BME280;56841;55.964;37.674;2022-10-31T15:13:41;98812.91;;;2.42;83.33
69622;BME280;56841;55.964;37.674;2022-10-31T15:16:08;98810.16;;;2.53;82.99
69622;BME280;56841;55.964;37.674;2022-10-31T15:18:38;98832.94;;;2.51;82.53
69622;BME280;56841;55.964;37.674;2022-10-31T15:21:09;98836.47;;;2.30;82.75
69622;BME280;56841;55.964;37.674;2022-10-31T15:23:35;98823.28;;;2.22;83.33
69622;BME280;56841;55.964;37.674;2022-10-31T15:26:03;98838.56;;;2.36;84.00
69622;BME280;56841;55.964;37.674;2022-10-31T15:28:30;98834.00;;;2.29;85.06
69622;BME280;56841;55.964;37.674;2022-10-31T15:30:59;98840.31;;;2.26;84.82
69622;BME280;56841;55.964;37.674;2022-10-31T15:33:29;98836.19;;;2.24;85.31
69622;BME280;56841;55.964;37.674;2022-10-31T15:36:02;98848.25;;;2.25;85.55
69622;BME280;56841;55.964;37.674;2022-10-31T15:38:29;98839.75;;;2.32;85.49
69622;BME280;56841;55.964;37.674;2022-10-31T15:43:47;98865.78;;;2.13;86.52